Sylvania, Alabama
Current Conditions -  °F | °C
As of 2:15 PM on Sunday 23 Nov 2014 (Local Time) from K4A9 Reporting Station
Light Rain Light Rain  
Wind Chill: 54°   Ceiling: 1000
Heat Index: 54°   Visibility: 7mi
Dew Point: 48°   Wind: 9mph
Humidity: 82%   Direction: 110°ESE
Pressure: 29.58"   Gusts: 31mph
Location:  34.56°N, 85.81°W
Report Text: K4A9 232015Z AUTO 11008G27KT 080V150 7SM -RA BKN010 OVC016 12/09 A2958 RMK AO2
Loading
Personal Weather Stations






























Interactive Weather Map New forecast layout! Learn more

10-Day Weather Forecast

Advertisements
Track Severe Weather on mobile